sensor_id;sensor_type;location;lat;lon;timestamp;temperature;humidity
28010;DHT22;15334;49.494;8.410;2023-03-14T00:03:34;10.70;99.90
28010;DHT22;15334;49.494;8.410;2023-03-14T00:11:33;10.70;99.90
28010;DHT22;15334;49.494;8.410;2023-03-14T00:22:07;10.70;99.90
28010;DHT22;15334;49.494;8.410;2023-03-14T00:25:12;10.70;99.90
28010;DHT22;15334;49.494;8.410;2023-03-14T00:28:13;10.80;99.90
28010;DHT22;15334;49.494;8.410;2023-03-14T00:32:02;10.70;99.90
28010;DHT22;15334;49.494;8.410;2023-03-14T00:35:03;10.80;99.90
28010;DHT22;15334;49.494;8.410;2023-03-14T00:38:46;10.80;99.90
28010;DHT22;15334;49.494;8.410;2023-03-14T00:45:44;10.70;99.90
28010;DHT22;15334;49.494;8.410;2023-03-14T00:54:36;10.70;99.90
28010;DHT22;15334;49.494;8.410;2023-03-14T01:04:00;10.70;99.90
28010;DHT22;15334;49.494;8.410;2023-03-14T01:07:40;10.70;99.90
28010;DHT22;15334;49.494;8.410;2023-03-14T01:11:04;10.60;99.90
28010;DHT22;15334;49.494;8.410;2023-03-14T01:14:30;10.60;99.90
28010;DHT22;15334;49.494;8.410;2023-03-14T01:17:49;10.60;99.90
28010;DHT22;15334;49.494;8.410;2023-03-14T01:21:13;10.60;99.90
28010;DHT22;15334;49.494;8.410;2023-03-14T01:24:16;10.70;99.90
28010;DHT22;15334;49.494;8.410;2023-03-14T01:28:14;10.60;99.90
28010;DHT22;15334;49.494;8.410;2023-03-14T01:32:05;10.60;99.90
28010;DHT22;15334;49.494;8.410;2023-03-14T01:35:52;10.60;99.90
28010;DHT22;15334;49.494;8.410;2023-03-14T01:38:55;10.70;99.90
28010;DHT22;15334;49.494;8.410;2023-03-14T01:42:15;10.70;99.90
28010;DHT22;15334;49.494;8.410;2023-03-14T01:49:06;10.70;99.90
28010;DHT22;15334;49.494;8.410;2023-03-14T01:52:05;10.70;99.90
28010;DHT22;15334;49.494;8.410;2023-03-14T01:55:52;10.70;99.90
28010;DHT22;15334;49.494;8.410;2023-03-14T01:59:12;10.70;99.90
28010;DHT22;15334;49.494;8.410;2023-03-14T02:02:16;10.60;99.90
28010;DHT22;15334;49.494;8.410;2023-03-14T02:05:04;10.60;99.90
28010;DHT22;15334;49.494;8.410;2023-03-14T02:08:07;10.60;99.90
28010;DHT22;15334;49.494;8.410;2023-03-14T02:11:15;10.60;99.90
28010;DHT22;15334;49.494;8.410;2023-03-14T02:14:47;10.60;99.90
28010;DHT22;15334;49.494;8.410;2023-03-14T02:18:01;10.60;99.90
28010;DHT22;15334;49.494;8.410;2023-03-14T02:32:29;10.60;99.90
28010;DHT22;15334;49.494;8.410;2023-03-14T02:36:09;10.60;99.90
28010;DHT22;15334;49.494;8.410;2023-03-14T02:39:48;10.70;99.90
28010;DHT22;15334;49.494;8.410;2023-03-14T02:42:39;10.70;99.90
28010;DHT22;15334;49.494;8.410;2023-03-14T02:46:04;10.80;99.90
28010;DHT22;15334;49.494;8.410;2023-03-14T02:49:35;10.80;99.90
28010;DHT22;15334;49.494;8.410;2023-03-14T02:52:53;10.70;99.90
28010;DHT22;15334;49.494;8.410;2023-03-14T02:56:01;10.60;99.90
28010;DHT22;15334;49.494;8.410;2023-03-14T02:59:21;10.60;99.90
28010;DHT22;15334;49.494;8.410;2023-03-14T03:02:45;10.50;99.90
28010;DHT22;15334;49.494;8.410;2023-03-14T03:05:53;10.50;99.90
28010;DHT22;15334;49.494;8.410;2023-03-14T03:08:48;10.50;99.90
28010;DHT22;15334;49.494;8.410;2023-03-14T03:14:53;10.50;99.90
28010;DHT22;15334;49.494;8.410;2023-03-14T03:17:54;10.50;99.90
28010;DHT22;15334;49.494;8.410;2023-03-14T03:21:06;10.60;99.90
28010;DHT22;15334;49.494;8.410;2023-03-14T03:23:58;10.50;99.90
28010;DHT22;15334;49.494;8.410;2023-03-14T03:27:10;10.50;99.90
28010;DHT22;15334;49.494;8.410;2023-03-14T03:30:32;10.50;99.90
28010;DHT22;15334;49.494;8.410;2023-03-14T03:33:45;10.40;99.90
28010;DHT22;15334;49.494;8.410;2023-03-14T03:36:49;10.40;99.90
28010;DHT22;15334;49.494;8.410;2023-03-14T03:39:51;10.30;99.90
28010;DHT22;15334;49.494;8.410;2023-03-14T03:43:47;10.40;99.90
28010;DHT22;15334;49.494;8.410;2023-03-14T03:47:16;10.40;99.90
28010;DHT22;15334;49.494;8.410;2023-03-14T03:50:13;10.40;99.90
28010;DHT22;15334;49.494;8.410;2023-03-14T03:56:49;10.30;99.90
28010;DHT22;15334;49.494;8.410;2023-03-14T03:59:51;10.30;99.90
28010;DHT22;15334;49.494;8.410;2023-03-14T04:02:23;10.20;99.90
28010;DHT22;15334;49.494;8.410;2023-03-14T04:05:18;10.20;99.90
28010;DHT22;15334;49.494;8.410;2023-03-14T04:08:05;10.20;99.90
28010;DHT22;15334;49.494;8.410;2023-03-14T04:11:03;10.20;99.90
28010;DHT22;15334;49.494;8.410;2023-03-14T04:14:01;10.30;99.90
28010;DHT22;15334;49.494;8.410;2023-03-14T04:17:06;10.30;99.90
28010;DHT22;15334;49.494;8.410;2023-03-14T04:19:51;10.40;99.90
28010;DHT22;15334;49.494;8.410;2023-03-14T04:26:10;10.30;99.90
28010;DHT22;15334;49.494;8.410;2023-03-14T04:28:52;10.20;99.90
28010;DHT22;15334;49.494;8.410;2023-03-14T04:32:20;10.10;99.90
28010;DHT22;15334;49.494;8.410;2023-03-14T04:36:00;10.10;99.90
28010;DHT22;15334;49.494;8.410;2023-03-14T04:43:28;10.20;99.90
28010;DHT22;15334;49.494;8.410;2023-03-14T04:47:56;10.30;99.90
28010;DHT22;15334;49.494;8.410;2023-03-14T04:50:39;10.40;99.90
28010;DHT22;15334;49.494;8.410;2023-03-14T04:53:46;10.50;99.90
28010;DHT22;15334;49.494;8.410;2023-03-14T04:56:57;10.50;99.90
28010;DHT22;15334;49.494;8.410;2023-03-14T05:04:23;10.50;99.90
28010;DHT22;15334;49.494;8.410;2023-03-14T05:07:35;10.50;99.90
28010;DHT22;15334;49.494;8.410;2023-03-14T05:10:35;10.50;99.90
28010;DHT22;15334;49.494;8.410;2023-03-14T05:14:13;10.50;99.90
28010;DHT22;15334;49.494;8.410;2023-03-14T05:17:02;10.50;99.90
28010;DHT22;15334;49.494;8.410;2023-03-14T05:19:55;10.50;99.90
28010;DHT22;15334;49.494;8.410;2023-03-14T05:22:25;10.50;99.90
28010;DHT22;15334;49.494;8.410;2023-03-14T05:25:09;10.50;99.90
28010;DHT22;15334;49.494;8.410;2023-03-14T05:28:42;10.50;99.90
28010;DHT22;15334;49.494;8.410;2023-03-14T05:32:07;10.40;99.90
28010;DHT22;15334;49.494;8.410;2023-03-14T05:34:57;10.40;99.90
28010;DHT22;15334;49.494;8.410;2023-03-14T05:37:59;10.50;99.90
28010;DHT22;15334;49.494;8.410;2023-03-14T05:40:50;10.50;99.90
28010;DHT22;15334;49.494;8.410;2023-03-14T05:43:38;10.50;99.90
28010;DHT22;15334;49.494;8.410;2023-03-14T05:53:52;10.50;99.90
28010;DHT22;15334;49.494;8.410;2023-03-14T05:56:48;10.50;99.90
28010;DHT22;15334;49.494;8.410;2023-03-14T05:59:59;10.50;99.90
28010;DHT22;15334;49.494;8.410;2023-03-14T06:02:45;10.60;99.90
28010;DHT22;15334;49.494;8.410;2023-03-14T06:06:12;10.50;99.90
28010;DHT22;15334;49.494;8.410;2023-03-14T06:09:49;10.50;99.90
28010;DHT22;15334;49.494;8.410;2023-03-14T06:13:17;10.50;99.90
28010;DHT22;15334;49.494;8.410;2023-03-14T06:20:21;10.50;99.90
28010;DHT22;15334;49.494;8.410;2023-03-14T06:23:53;10.50;99.90
28010;DHT22;15334;49.494;8.410;2023-03-14T06:26:32;10.60;99.90
28010;DHT22;15334;49.494;8.410;2023-03-14T06:29:07;10.60;99.90
28010;DHT22;15334;49.494;8.410;2023-03-14T06:31:47;10.60;99.90
28010;DHT22;15334;49.494;8.410;2023-03-14T06:34:24;10.70;99.90
28010;DHT22;15334;49.494;8.410;2023-03-14T06:37:08;10.70;99.90
28010;DHT22;15334;49.494;8.410;2023-03-14T06:39:41;10.70;99.90
28010;DHT22;15334;49.494;8.410;2023-03-14T06:42:15;10.70;99.90
28010;DHT22;15334;49.494;8.410;2023-03-14T06:44:43;10.60;99.90
28010;DHT22;15334;49.494;8.410;2023-03-14T06:47:11;10.60;99.90
28010;DHT22;15334;49.494;8.410;2023-03-14T06:49:44;10.50;99.90
28010;DHT22;15334;49.494;8.410;2023-03-14T06:52:19;10.50;99.90
28010;DHT22;15334;49.494;8.410;2023-03-14T06:54:49;10.50;99.90
28010;DHT22;15334;49.494;8.410;2023-03-14T06:57:24;10.60;99.90
28010;DHT22;15334;49.494;8.410;2023-03-14T06:59:53;10.70;99.90
28010;DHT22;15334;49.494;8.410;2023-03-14T07:02:24;10.70;99.90
28010;DHT22;15334;49.494;8.410;2023-03-14T07:05:14;10.80;99.90
28010;DHT22;15334;49.494;8.410;2023-03-14T07:07:45;10.90;99.90
28010;DHT22;15334;49.494;8.410;2023-03-14T07:10:37;10.90;99.90
28010;DHT22;15334;49.494;8.410;2023-03-14T07:13:23;11.00;99.90
28010;DHT22;15334;49.494;8.410;2023-03-14T07:15:53;11.10;99.90
28010;DHT22;15334;49.494;8.410;2023-03-14T07:18:30;11.10;99.90
28010;DHT22;15334;49.494;8.410;2023-03-14T07:21:11;11.10;99.90
28010;DHT22;15334;49.494;8.410;2023-03-14T07:23:49;11.10;99.90
28010;DHT22;15334;49.494;8.410;2023-03-14T07:26:37;11.10;99.90
28010;DHT22;15334;49.494;8.410;2023-03-14T07:29:16;11.10;99.90
28010;DHT22;15334;49.494;8.410;2023-03-14T07:31:53;11.10;99.90
28010;DHT22;15334;49.494;8.410;2023-03-14T07:34:39;11.10;99.90
28010;DHT22;15334;49.494;8.410;2023-03-14T07:37:09;11.10;99.90
28010;DHT22;15334;49.494;8.410;2023-03-14T07:39:43;11.00;99.90
28010;DHT22;15334;49.494;8.410;2023-03-14T07:42:30;11.00;99.90
28010;DHT22;15334;49.494;8.410;2023-03-14T07:45:06;11.00;99.90
28010;DHT22;15334;49.494;8.410;2023-03-14T07:47:40;11.00;99.90
28010;DHT22;15334;49.494;8.410;2023-03-14T07:50:18;11.10;99.90
28010;DHT22;15334;49.494;8.410;2023-03-14T07:52:58;11.10;99.90
28010;DHT22;15334;49.494;8.410;2023-03-14T07:55:51;11.20;99.90
28010;DHT22;15334;49.494;8.410;2023-03-14T07:58:34;11.30;99.90
28010;DHT22;15334;49.494;8.410;2023-03-14T08:01:11;11.40;99.90
28010;DHT22;15334;49.494;8.410;2023-03-14T08:03:40;11.40;99.90
28010;DHT22;15334;49.494;8.410;2023-03-14T08:06:08;11.50;99.90
28010;DHT22;15334;49.494;8.410;2023-03-14T08:08:36;11.50;99.90
28010;DHT22;15334;49.494;8.410;2023-03-14T08:11:05;11.60;99.90
28010;DHT22;15334;49.494;8.410;2023-03-14T08:13:35;11.60;99.90
28010;DHT22;15334;49.494;8.410;2023-03-14T08:16:06;11.70;99.90
28010;DHT22;15334;49.494;8.410;2023-03-14T08:18:46;11.80;99.90
28010;DHT22;15334;49.494;8.410;2023-03-14T08:21:18;11.90;99.90
28010;DHT22;15334;49.494;8.410;2023-03-14T08:23:55;12.00;99.90
28010;DHT22;15334;49.494;8.410;2023-03-14T08:26:24;12.00;99.90
28010;DHT22;15334;49.494;8.410;2023-03-14T08:28:57;12.10;99.90
28010;DHT22;15334;49.494;8.410;2023-03-14T08:31:35;12.10;99.90
28010;DHT22;15334;49.494;8.410;2023-03-14T08:38:00;12.10;99.90
28010;DHT22;15334;49.494;8.410;2023-03-14T08:40:50;12.10;99.90
28010;DHT22;15334;49.494;8.410;2023-03-14T08:44:02;12.10;99.90
28010;DHT22;15334;49.494;8.410;2023-03-14T08:54:49;12.30;99.90
28010;DHT22;15334;49.494;8.410;2023-03-14T08:57:45;12.40;99.90
28010;DHT22;15334;49.494;8.410;2023-03-14T09:01:09;12.40;99.90
28010;DHT22;15334;49.494;8.410;2023-03-14T09:04:13;12.30;99.90
28010;DHT22;15334;49.494;8.410;2023-03-14T09:08:13;12.40;99.90
28010;DHT22;15334;49.494;8.410;2023-03-14T09:15:15;12.40;99.90
28010;DHT22;15334;49.494;8.410;2023-03-14T09:21:51;12.50;99.90
28010;DHT22;15334;49.494;8.410;2023-03-14T09:29:03;12.50;99.90
28010;DHT22;15334;49.494;8.410;2023-03-14T09:32:06;12.40;99.90
28010;DHT22;15334;49.494;8.410;2023-03-14T09:35:09;12.30;99.90
28010;DHT22;15334;49.494;8.410;2023-03-14T09:38:05;12.30;99.90
28010;DHT22;15334;49.494;8.410;2023-03-14T09:41:26;12.40;99.90
28010;DHT22;15334;49.494;8.410;2023-03-14T09:44:52;12.20;99.90
28010;DHT22;15334;49.494;8.410;2023-03-14T09:47:57;12.30;99.90
28010;DHT22;15334;49.494;8.410;2023-03-14T09:50:39;12.30;99.90
28010;DHT22;15334;49.494;8.410;2023-03-14T09:53:42;12.30;99.90
28010;DHT22;15334;49.494;8.410;2023-03-14T09:56:34;12.40;99.90
28010;DHT22;15334;49.494;8.410;2023-03-14T09:59:10;12.30;99.90
28010;DHT22;15334;49.494;8.410;2023-03-14T10:02:23;12.20;99.90
28010;DHT22;15334;49.494;8.410;2023-03-14T10:09:42;12.10;99.90
28010;DHT22;15334;49.494;8.410;2023-03-14T10:16:52;12.30;99.90
28010;DHT22;15334;49.494;8.410;2023-03-14T10:38:38;12.00;99.90
28010;DHT22;15334;49.494;8.410;2023-03-14T10:42:16;11.80;99.90
28010;DHT22;15334;49.494;8.410;2023-03-14T10:45:44;11.80;99.90
28010;DHT22;15334;49.494;8.410;2023-03-14T10:49:15;11.70;99.90
28010;DHT22;15334;49.494;8.410;2023-03-14T10:53:00;11.60;99.90
28010;DHT22;15334;49.494;8.410;2023-03-14T10:57:04;11.40;99.90
28010;DHT22;15334;49.494;8.410;2023-03-14T11:00:49;11.30;99.90
28010;DHT22;15334;49.494;8.410;2023-03-14T11:27:52;11.30;99.90
28010;DHT22;15334;49.494;8.410;2023-03-14T11:39:09;11.20;99.90
28010;DHT22;15334;49.494;8.410;2023-03-14T11:42:53;11.10;99.90
28010;DHT22;15334;49.494;8.410;2023-03-14T11:46:43;11.10;99.90
28010;DHT22;15334;49.494;8.410;2023-03-14T11:50:33;11.10;99.90
28010;DHT22;15334;49.494;8.410;2023-03-14T11:54:01;11.00;99.90
28010;DHT22;15334;49.494;8.410;2023-03-14T12:01:51;11.30;99.90
28010;DHT22;15334;49.494;8.410;2023-03-14T12:06:56;11.30;99.90
28010;DHT22;15334;49.494;8.410;2023-03-14T12:20:30;11.20;99.90
28010;DHT22;15334;49.494;8.410;2023-03-14T12:24:14;11.10;99.90
28010;DHT22;15334;49.494;8.410;2023-03-14T12:35:39;10.90;99.90
28010;DHT22;15334;49.494;8.410;2023-03-14T12:42:02;10.80;99.90
28010;DHT22;15334;49.494;8.410;2023-03-14T12:48:16;10.90;99.90
28010;DHT22;15334;49.494;8.410;2023-03-14T12:51:14;10.90;99.90
28010;DHT22;15334;49.494;8.410;2023-03-14T12:54:41;10.90;99.90
28010;DHT22;15334;49.494;8.410;2023-03-14T12:57:58;11.00;99.90
28010;DHT22;15334;49.494;8.410;2023-03-14T13:01:18;10.90;99.90
28010;DHT22;15334;49.494;8.410;2023-03-14T13:03:57;10.80;99.90
28010;DHT22;15334;49.494;8.410;2023-03-14T13:07:30;10.60;99.90
28010;DHT22;15334;49.494;8.410;2023-03-14T13:13:24;10.40;99.90
28010;DHT22;15334;49.494;8.410;2023-03-14T13:16:28;10.40;99.90
28010;DHT22;15334;49.494;8.410;2023-03-14T13:19:22;10.40;99.90
28010;DHT22;15334;49.494;8.410;2023-03-14T13:22:31;10.40;99.90
28010;DHT22;15334;49.494;8.410;2023-03-14T13:28:10;10.60;99.90
28010;DHT22;15334;49.494;8.410;2023-03-14T13:31:23;10.80;99.90
28010;DHT22;15334;49.494;8.410;2023-03-14T13:34:16;10.90;99.90
28010;DHT22;15334;49.494;8.410;2023-03-14T13:37:05;11.10;99.90
28010;DHT22;15334;49.494;8.410;2023-03-14T13:40:01;11.30;99.90
28010;DHT22;15334;49.494;8.410;2023-03-14T13:43:02;11.50;99.90
28010;DHT22;15334;49.494;8.410;2023-03-14T13:46:00;11.30;99.90
28010;DHT22;15334;49.494;8.410;2023-03-14T13:48:50;11.20;99.90
28010;DHT22;15334;49.494;8.410;2023-03-14T13:51:56;11.00;99.90
28010;DHT22;15334;49.494;8.410;2023-03-14T13:54:46;10.70;99.90
28010;DHT22;15334;49.494;8.410;2023-03-14T13:57:51;10.60;99.90
28010;DHT22;15334;49.494;8.410;2023-03-14T14:00:54;10.30;99.90
28010;DHT22;15334;49.494;8.410;2023-03-14T14:04:15;10.10;99.90
28010;DHT22;15334;49.494;8.410;2023-03-14T14:07:15;10.20;99.90
28010;DHT22;15334;49.494;8.410;2023-03-14T14:10:21;10.30;99.90
28010;DHT22;15334;49.494;8.410;2023-03-14T14:13:22;10.70;99.90
28010;DHT22;15334;49.494;8.410;2023-03-14T14:16:04;10.90;99.90
28010;DHT22;15334;49.494;8.410;2023-03-14T14:22:20;11.00;99.90
28010;DHT22;15334;49.494;8.410;2023-03-14T14:25:01;11.00;99.90
28010;DHT22;15334;49.494;8.410;2023-03-14T14:27:43;11.00;99.90
28010;DHT22;15334;49.494;8.410;2023-03-14T14:30:32;10.90;99.90
28010;DHT22;15334;49.494;8.410;2023-03-14T14:36:51;11.00;99.90
28010;DHT22;15334;49.494;8.410;2023-03-14T14:39:57;11.00;99.90
28010;DHT22;15334;49.494;8.410;2023-03-14T14:43:10;10.90;99.90
28010;DHT22;15334;49.494;8.410;2023-03-14T14:46:36;10.70;99.90
28010;DHT22;15334;49.494;8.410;2023-03-14T14:49:45;10.70;99.90
28010;DHT22;15334;49.494;8.410;2023-03-14T14:52:49;10.70;99.90
28010;DHT22;15334;49.494;8.410;2023-03-14T14:56:15;10.70;99.90
28010;DHT22;15334;49.494;8.410;2023-03-14T15:01:56;10.70;99.90
28010;DHT22;15334;49.494;8.410;2023-03-14T15:04:33;10.80;99.90
28010;DHT22;15334;49.494;8.410;2023-03-14T15:07:59;10.70;99.90
28010;DHT22;15334;49.494;8.410;2023-03-14T15:10:29;10.70;99.90
28010;DHT22;15334;49.494;8.410;2023-03-14T15:13:12;10.60;99.90
28010;DHT22;15334;49.494;8.410;2023-03-14T15:16:04;10.60;99.60
28010;DHT22;15334;49.494;8.410;2023-03-14T15:18:52;10.50;99.90
28010;DHT22;15334;49.494;8.410;2023-03-14T15:22:00;10.50;99.90
28010;DHT22;15334;49.494;8.410;2023-03-14T15:28:12;10.60;99.10
28010;DHT22;15334;49.494;8.410;2023-03-14T15:31:15;10.70;98.40
28010;DHT22;15334;49.494;8.410;2023-03-14T15:34:04;11.00;98.70
28010;DHT22;15334;49.494;8.410;2023-03-14T15:36:38;11.20;97.70
28010;DHT22;15334;49.494;8.410;2023-03-14T15:39:38;11.30;98.30
28010;DHT22;15334;49.494;8.410;2023-03-14T15:45:21;11.20;97.70
28010;DHT22;15334;49.494;8.410;2023-03-14T15:48:15;11.20;96.50
28010;DHT22;15334;49.494;8.410;2023-03-14T15:51:41;11.20;97.00
28010;DHT22;15334;49.494;8.410;2023-03-14T15:54:33;11.30;97.90
28010;DHT22;15334;49.494;8.410;2023-03-14T15:57:24;11.30;97.70
28010;DHT22;15334;49.494;8.410;2023-03-14T16:00:16;11.10;97.30
28010;DHT22;15334;49.494;8.410;2023-03-14T16:03:04;11.00;97.60
28010;DHT22;15334;49.494;8.410;2023-03-14T16:06:11;11.00;97.20
28010;DHT22;15334;49.494;8.410;2023-03-14T16:08:53;10.80;97.40
28010;DHT22;15334;49.494;8.410;2023-03-14T16:11:41;10.70;98.30
28010;DHT22;15334;49.494;8.410;2023-03-14T16:14:20;10.60;98.50
28010;DHT22;15334;49.494;8.410;2023-03-14T16:17:04;10.60;98.90
28010;DHT22;15334;49.494;8.410;2023-03-14T16:19:44;10.50;99.20
28010;DHT22;15334;49.494;8.410;2023-03-14T16:22:38;10.40;99.60
28010;DHT22;15334;49.494;8.410;2023-03-14T16:28:19;10.30;99.70
28010;DHT22;15334;49.494;8.410;2023-03-14T16:31:11;10.20;99.90
28010;DHT22;15334;49.494;8.410;2023-03-14T16:34:20;10.20;99.90
28010;DHT22;15334;49.494;8.410;2023-03-14T16:41:12;10.10;99.90
28010;DHT22;15334;49.494;8.410;2023-03-14T16:44:33;10.10;99.90
28010;DHT22;15334;49.494;8.410;2023-03-14T16:47:36;10.00;99.90
28010;DHT22;15334;49.494;8.410;2023-03-14T16:50:50;10.00;99.90
28010;DHT22;15334;49.494;8.410;2023-03-14T16:54:01;10.00;99.90
28010;DHT22;15334;49.494;8.410;2023-03-14T16:57:06;10.00;99.90
28010;DHT22;15334;49.494;8.410;2023-03-14T17:00:11;10.00;99.90
28010;DHT22;15334;49.494;8.410;2023-03-14T17:02:57;9.90;99.90
28010;DHT22;15334;49.494;8.410;2023-03-14T17:05:44;9.90;99.90
28010;DHT22;15334;49.494;8.410;2023-03-14T17:08:40;9.80;99.90
28010;DHT22;15334;49.494;8.410;2023-03-14T17:11:49;9.70;99.90
28010;DHT22;15334;49.494;8.410;2023-03-14T17:15:10;9.70;99.90
28010;DHT22;15334;49.494;8.410;2023-03-14T17:18:06;9.60;99.90
28010;DHT22;15334;49.494;8.410;2023-03-14T17:21:07;9.60;99.90
28010;DHT22;15334;49.494;8.410;2023-03-14T17:23:52;9.50;99.90
28010;DHT22;15334;49.494;8.410;2023-03-14T17:26:56;9.40;99.90
28010;DHT22;15334;49.494;8.410;2023-03-14T17:30:02;9.40;99.90
28010;DHT22;15334;49.494;8.410;2023-03-14T17:33:10;9.30;99.90
28010;DHT22;15334;49.494;8.410;2023-03-14T17:36:36;9.20;99.90
28010;DHT22;15334;49.494;8.410;2023-03-14T17:39:24;9.10;99.90
28010;DHT22;15334;49.494;8.410;2023-03-14T17:42:15;9.10;99.90
28010;DHT22;15334;49.494;8.410;2023-03-14T17:45:20;9.10;99.90
28010;DHT22;15334;49.494;8.410;2023-03-14T17:48:23;9.00;99.90
28010;DHT22;15334;49.494;8.410;2023-03-14T17:51:28;8.90;99.90
28010;DHT22;15334;49.494;8.410;2023-03-14T17:54:34;8.90;99.90
28010;DHT22;15334;49.494;8.410;2023-03-14T17:57:16;8.90;99.90
28010;DHT22;15334;49.494;8.410;2023-03-14T17:59:54;9.00;99.90
28010;DHT22;15334;49.494;8.410;2023-03-14T18:02:24;9.00;99.90
28010;DHT22;15334;49.494;8.410;2023-03-14T18:04:53;9.00;99.90
28010;DHT22;15334;49.494;8.410;2023-03-14T18:07:24;9.00;99.90
28010;DHT22;15334;49.494;8.410;2023-03-14T18:10:05;9.10;99.90
28010;DHT22;15334;49.494;8.410;2023-03-14T18:12:40;9.10;99.90
28010;DHT22;15334;49.494;8.410;2023-03-14T18:15:09;9.10;99.90
28010;DHT22;15334;49.494;8.410;2023-03-14T18:17:50;9.10;99.90
28010;DHT22;15334;49.494;8.410;2023-03-14T18:20:48;9.10;99.90
28010;DHT22;15334;49.494;8.410;2023-03-14T18:23:39;9.10;99.90
28010;DHT22;15334;49.494;8.410;2023-03-14T18:26:21;9.00;99.90
28010;DHT22;15334;49.494;8.410;2023-03-14T18:28:50;8.90;99.90
28010;DHT22;15334;49.494;8.410;2023-03-14T18:31:19;8.90;99.90
28010;DHT22;15334;49.494;8.410;2023-03-14T18:33:51;8.80;99.90
28010;DHT22;15334;49.494;8.410;2023-03-14T18:36:21;8.80;99.90
28010;DHT22;15334;49.494;8.410;2023-03-14T18:38:49;8.70;99.90
28010;DHT22;15334;49.494;8.410;2023-03-14T18:41:25;8.60;99.90
28010;DHT22;15334;49.494;8.410;2023-03-14T18:43:53;8.50;99.90
28010;DHT22;15334;49.494;8.410;2023-03-14T18:46:22;8.50;99.90
28010;DHT22;15334;49.494;8.410;2023-03-14T18:48:53;8.50;99.90
28010;DHT22;15334;49.494;8.410;2023-03-14T18:51:23;8.40;99.90
28010;DHT22;15334;49.494;8.410;2023-03-14T18:54:01;8.40;99.90
28010;DHT22;15334;49.494;8.410;2023-03-14T19:01:08;8.30;99.90
28010;DHT22;15334;49.494;8.410;2023-03-14T19:03:57;8.20;99.90
28010;DHT22;15334;49.494;8.410;2023-03-14T19:07:21;8.10;99.90
28010;DHT22;15334;49.494;8.410;2023-03-14T19:13:42;7.90;99.90
28010;DHT22;15334;49.494;8.410;2023-03-14T19:20:54;7.40;99.90
28010;DHT22;15334;49.494;8.410;2023-03-14T19:24:16;7.10;99.90
28010;DHT22;15334;49.494;8.410;2023-03-14T19:27:10;6.70;99.90
28010;DHT22;15334;49.494;8.410;2023-03-14T19:30:19;6.40;99.90
28010;DHT22;15334;49.494;8.410;2023-03-14T19:33:19;6.20;99.90
28010;DHT22;15334;49.494;8.410;2023-03-14T19:36:36;6.10;99.90
28010;DHT22;15334;49.494;8.410;2023-03-14T19:39:29;6.10;99.90
28010;DHT22;15334;49.494;8.410;2023-03-14T19:42:44;6.10;99.90
28010;DHT22;15334;49.494;8.410;2023-03-14T19:45:53;6.10;99.90
28010;DHT22;15334;49.494;8.410;2023-03-14T19:49:10;6.00;99.90
28010;DHT22;15334;49.494;8.410;2023-03-14T19:52:57;5.90;99.90
28010;DHT22;15334;49.494;8.410;2023-03-14T19:55:38;5.80;99.90
28010;DHT22;15334;49.494;8.410;2023-03-14T20:02:04;5.60;99.90
28010;DHT22;15334;49.494;8.410;2023-03-14T20:05:03;5.50;99.90
28010;DHT22;15334;49.494;8.410;2023-03-14T20:08:38;5.50;99.90
28010;DHT22;15334;49.494;8.410;2023-03-14T20:12:28;5.30;99.90
28010;DHT22;15334;49.494;8.410;2023-03-14T20:15:52;5.10;99.90
28010;DHT22;15334;49.494;8.410;2023-03-14T20:19:38;5.00;99.90
28010;DHT22;15334;49.494;8.410;2023-03-14T20:23:11;4.80;99.90
28010;DHT22;15334;49.494;8.410;2023-03-14T20:26:04;4.60;99.90
28010;DHT22;15334;49.494;8.410;2023-03-14T20:29:30;4.30;99.90
28010;DHT22;15334;49.494;8.410;2023-03-14T20:36:27;4.10;99.90
28010;DHT22;15334;49.494;8.410;2023-03-14T20:43:57;4.00;99.90
28010;DHT22;15334;49.494;8.410;2023-03-14T20:51:26;3.70;99.90
28010;DHT22;15334;49.494;8.410;2023-03-14T20:58:35;3.60;99.90
28010;DHT22;15334;49.494;8.410;2023-03-14T21:02:37;3.50;99.90
28010;DHT22;15334;49.494;8.410;2023-03-14T21:07:44;3.60;99.90
28010;DHT22;15334;49.494;8.410;2023-03-14T21:10:33;3.60;99.90
28010;DHT22;15334;49.494;8.410;2023-03-14T21:18:34;3.70;99.90
28010;DHT22;15334;49.494;8.410;2023-03-14T21:21:57;3.60;99.90
28010;DHT22;15334;49.494;8.410;2023-03-14T21:26:05;3.70;99.90
28010;DHT22;15334;49.494;8.410;2023-03-14T21:29:26;3.80;99.90
28010;DHT22;15334;49.494;8.410;2023-03-14T21:32:36;3.90;99.90
28010;DHT22;15334;49.494;8.410;2023-03-14T21:36:18;3.90;99.90
28010;DHT22;15334;49.494;8.410;2023-03-14T21:39:06;3.90;99.90
28010;DHT22;15334;49.494;8.410;2023-03-14T21:42:08;3.90;99.90
28010;DHT22;15334;49.494;8.410;2023-03-14T21:45:55;3.90;99.90
28010;DHT22;15334;49.494;8.410;2023-03-14T21:49:06;3.90;99.90
28010;DHT22;15334;49.494;8.410;2023-03-14T21:52:39;3.90;99.90
28010;DHT22;15334;49.494;8.410;2023-03-14T22:00:14;4.00;99.90
28010;DHT22;15334;49.494;8.410;2023-03-14T22:04:03;4.20;99.90
28010;DHT22;15334;49.494;8.410;2023-03-14T22:07:29;4.30;99.90
28010;DHT22;15334;49.494;8.410;2023-03-14T22:11:04;4.40;99.90
28010;DHT22;15334;49.494;8.410;2023-03-14T22:14:53;4.60;99.90
28010;DHT22;15334;49.494;8.410;2023-03-14T22:18:03;4.70;99.90
28010;DHT22;15334;49.494;8.410;2023-03-14T22:21:37;4.60;99.90
28010;DHT22;15334;49.494;8.410;2023-03-14T22:24:57;4.70;99.90
28010;DHT22;15334;49.494;8.410;2023-03-14T22:28:29;4.80;99.90
28010;DHT22;15334;49.494;8.410;2023-03-14T22:35:23;4.80;99.90
28010;DHT22;15334;49.494;8.410;2023-03-14T22:38:17;4.90;99.90
28010;DHT22;15334;49.494;8.410;2023-03-14T22:41:32;4.80;99.90
28010;DHT22;15334;49.494;8.410;2023-03-14T22:45:13;4.80;99.90
28010;DHT22;15334;49.494;8.410;2023-03-14T22:48:33;4.70;99.90
28010;DHT22;15334;49.494;8.410;2023-03-14T22:52:18;4.60;99.90
28010;DHT22;15334;49.494;8.410;2023-03-14T22:55:10;4.70;99.90
28010;DHT22;15334;49.494;8.410;2023-03-14T22:58:30;4.70;99.90
28010;DHT22;15334;49.494;8.410;2023-03-14T23:01:47;4.60;99.90
28010;DHT22;15334;49.494;8.410;2023-03-14T23:04:46;4.60;99.90
28010;DHT22;15334;49.494;8.410;2023-03-14T23:07:35;4.60;99.90
28010;DHT22;15334;49.494;8.410;2023-03-14T23:10:19;4.70;99.90
28010;DHT22;15334;49.494;8.410;2023-03-14T23:12:47;4.70;99.90
28010;DHT22;15334;49.494;8.410;2023-03-14T23:15:17;4.80;99.90
28010;DHT22;15334;49.494;8.410;2023-03-14T23:17:45;4.90;99.90
28010;DHT22;15334;49.494;8.410;2023-03-14T23:20:13;4.90;99.90
28010;DHT22;15334;49.494;8.410;2023-03-14T23:22:41;4.90;99.90
28010;DHT22;15334;49.494;8.410;2023-03-14T23:25:12;4.90;99.90
28010;DHT22;15334;49.494;8.410;2023-03-14T23:27:40;4.80;99.90
28010;DHT22;15334;49.494;8.410;2023-03-14T23:30:13;4.80;99.90
28010;DHT22;15334;49.494;8.410;2023-03-14T23:32:45;4.80;99.90
28010;DHT22;15334;49.494;8.410;2023-03-14T23:35:16;4.70;99.90
28010;DHT22;15334;49.494;8.410;2023-03-14T23:37:46;4.70;99.90